^^
Station Historical Data
Daily Summary for March 28, 2017 Units:  English    Metric   Both
« Previous Day
Next Day »
Daily Weekly Monthly Yearly Custom
  High: Low: Average:
Temperature: 44.8 °F 40.5 °F 42.1 °F
Dew Point: 44.0 °F 39.7 °F 41.3 °F
Humidity: 97% 96% 97%
Wind Speed: 2.0mph 0.0mph 0.2mph
Wind Gust: 8.0mph - -
Wind- - SW
Pressure: 30.03 in 29.89 in -
Precipitation: 0.86 in    
Historical Graphs
 
 
Tabular Data for March 28, 2017
Time Temperature Dew Point Pressure Wind Wind Speed Wind Gust Humidity Rainfall Rate (Hourly) Conditions
00:00 43.7 °F 42.6 °F 30.03 in Calm   1.0 mph 96% 0.00 in RA
00:15 43.7 °F 42.6 °F 30.02 in Calm     96% 0.00 in BKN
00:30 43.5 °F 42.5 °F 30.02 in Calm     96% 0.00 in BKN
00:45 43.4 °F 42.3 °F 30.02 in Calm     96% 0.00 in BKN
01:00 43.3 °F 42.2 °F 30.01 in NNE 1.0 mph 1.0 mph 96% 0.00 in BKN
02:15 40.7 °F 39.9 °F 30.00 in Calm   5.0 mph 97% 0.00 in CLR
02:30 40.6 °F 39.8 °F 29.99 in Calm   1.0 mph 97% 0.00 in CLR
02:45 40.8 °F 40.0 °F 30.00 in Calm   1.0 mph 97% 0.00 in CLR
03:00 40.8 °F 40.0 °F 29.98 in Calm   1.0 mph 97% 0.02 in RA
03:15 40.9 °F 40.1 °F 29.98 in North 1.0 mph 4.0 mph 97% 0.01 in -RA
03:30 41.0 °F 40.2 °F 29.97 in South 1.0 mph 3.0 mph 97% 0.01 in -RA
03:45 41.1 °F 40.3 °F 29.97 in Calm   3.0 mph 97% 0.04 in -RA
04:00 41.2 °F 40.4 °F 29.96 in NW 1.0 mph 3.0 mph 97% 0.02 in -RA
04:15 41.2 °F 40.5 °F 29.96 in Calm   5.0 mph 97% 0.00 in -RA
04:45 41.3 °F 40.5 °F 29.97 in ESE 1.0 mph 3.0 mph 97% 0.19 in -RA
05:00 41.4 °F 40.6 °F 29.99 in WSW 2.0 mph 4.0 mph 97% 0.12 in -RA
05:15 41.1 °F 40.3 °F 29.97 in Calm   3.0 mph 97% 0.04 in RA
05:30 41.3 °F 40.5 °F 29.97 in NW 1.0 mph 2.0 mph 97% 0.01 in BKN
05:45 41.3 °F 40.5 °F 29.98 in Calm   1.0 mph 97% 0.00 in BKN
06:00 41.3 °F 40.6 °F 29.97 in Calm   2.0 mph 97% 0.00 in BKN
06:15 40.8 °F 40.0 °F 29.98 in Calm   3.0 mph 97% 0.00 in -DZ
06:30 40.6 °F 39.8 °F 29.97 in Calm   3.0 mph 97% 0.00 in -DZ
06:45 40.5 °F 39.7 °F 29.96 in Calm   3.0 mph 97% 0.00 in -DZ
07:00 40.6 °F 39.8 °F 29.98 in Calm   3.0 mph 97% 0.00 in -DZ
07:15 40.6 °F 39.8 °F 29.98 in Calm   1.0 mph 97% 0.00 in OVC
07:30 40.6 °F 39.8 °F 29.98 in Calm   2.0 mph 97% 0.00 in OVC
07:45 40.8 °F 40.0 °F 29.99 in Calm   1.0 mph 97% 0.00 in OVC
08:00 40.8 °F 40.0 °F 29.99 in Calm   4.0 mph 97% 0.00 in OVC
08:15 40.9 °F 40.1 °F 29.99 in Calm   2.0 mph 97% 0.00 in CLR
08:30 40.9 °F 40.1 °F 29.99 in Calm   1.0 mph 97% 0.00 in CLR
08:45 40.9 °F 40.1 °F 29.98 in Calm   3.0 mph 97% 0.00 in CLR
09:00 41.0 °F 40.3 °F 29.98 in NW 1.0 mph 5.0 mph 97% 0.00 in CLR
09:15 41.1 °F 40.3 °F 29.97 in SSW 1.0 mph 5.0 mph 97% 0.00 in -DZ
09:30 41.2 °F 40.4 °F 29.97 in Calm   4.0 mph 97% 0.00 in -DZ
09:45 41.4 °F 40.6 °F 29.97 in Calm   5.0 mph 97% 0.00 in -DZ
10:00 41.6 °F 40.8 °F 29.98 in Calm   2.0 mph 97% 0.00 in -DZ
10:15 41.9 °F 41.1 °F 30.00 in Calm   2.0 mph 97% 0.00 in CLR
10:30 42.0 °F 41.2 °F 29.99 in Calm   1.0 mph 97% 0.00 in CLR
10:45 42.0 °F 41.2 °F 29.98 in Calm   1.0 mph 97% 0.01 in
11:00 42.1 °F 41.4 °F 30.00 in Calm   4.0 mph 97% 0.00 in
11:15 41.9 °F 41.1 °F 30.01 in SSW 1.0 mph 6.0 mph 97% 0.00 in -RA
11:30 41.9 °F 41.1 °F 30.00 in Calm   4.0 mph 97% 0.01 in -RA
11:45 41.8 °F 41.0 °F 29.97 in NW 1.0 mph 5.0 mph 97% 0.01 in -RA
12:00 41.7 °F 40.9 °F 29.96 in North 1.0 mph 4.0 mph 97% 0.04 in -RA
12:15 42.3 °F 41.5 °F 29.94 in North 1.0 mph 7.0 mph 97% 0.02 in -RA
12:30 43.1 °F 42.3 °F 29.94 in NNW 1.0 mph 8.0 mph 97% 0.00 in -RA
12:45 43.5 °F 42.7 °F 29.95 in NW 1.0 mph 3.0 mph 97% 0.00 in -RA
13:15 44.6 °F 43.9 °F 29.95 in Calm   2.0 mph 97% 0.00 in -RA
13:30 44.8 °F 44.0 °F 29.96 in Calm   1.0 mph 97% 0.00 in -RA
13:45 44.6 °F 43.8 °F 29.96 in Calm   1.0 mph 97% 0.00 in -RA
14:00 44.4 °F 43.3 °F 29.96 in Calm   2.0 mph 96% 0.01 in -RA
14:15 44.0 °F 43.0 °F 29.97 in Calm   2.0 mph 96% 0.00 in -RA
14:30 43.3 °F 42.2 °F 29.98 in WSW 1.0 mph 2.0 mph 96% 0.00 in -RA
14:45 43.1 °F 42.3 °F 29.96 in Calm   1.0 mph 97% 0.02 in -RA
15:00 43.5 °F 42.7 °F 29.93 in Calm   2.0 mph 97% 0.00 in -RA
15:15 44.0 °F 43.2 °F 29.92 in Calm   3.0 mph 97% 0.01 in -RA
15:30 44.0 °F 43.2 °F 29.91 in Calm   2.0 mph 97% 0.01 in -RA
15:45 43.8 °F 43.0 °F 29.89 in Calm   5.0 mph 97% 0.01 in -RA
16:00 43.8 °F 43.0 °F 29.89 in NNW 1.0 mph 5.0 mph 97% 0.00 in -RA
16:15 43.7 °F 42.9 °F 29.89 in NW 1.0 mph 4.0 mph 97% 0.00 in -RA
16:30 43.8 °F 43.0 °F 29.90 in Calm   3.0 mph 97% 0.00 in -RA
16:45 43.6 °F 42.5 °F 29.91 in SSE 1.0 mph 3.0 mph 96% 0.00 in -RA
17:00 43.1 °F 42.1 °F 29.91 in ENE 1.0 mph 3.0 mph 96% 0.00 in -RA
17:15 42.5 °F 41.4 °F 29.91 in Calm   3.0 mph 96% 0.00 in -RA
17:30 42.5 °F 41.4 °F 29.92 in Calm   1.0 mph 96% 0.00 in -RA
17:45 41.8 °F 40.8 °F 29.93 in Calm   3.0 mph 96% 0.00 in -RA
18:00 41.4 °F 40.3 °F 29.92 in Calm   4.0 mph 96% 0.00 in -RA
18:15 41.2 °F 40.2 °F 29.92 in Calm   3.0 mph 96% 0.01 in -RA
18:30 41.3 °F 40.5 °F 29.92 in Calm   2.0 mph 97% 0.02 in -RA
18:45 41.3 °F 40.5 °F 29.92 in Calm   1.0 mph 97% 0.01 in -RA
19:00 41.4 °F 40.6 °F 29.93 in Calm   1.0 mph 97% 0.02 in -RA
19:15 41.5 °F 40.7 °F 29.93 in Calm   1.0 mph 97% 0.02 in RA
19:30 41.6 °F 40.8 °F 29.93 in Calm     97% 0.05 in RA
19:45 41.5 °F 40.8 °F 29.94 in Calm     97% 0.02 in RA
20:00 41.7 °F 40.9 °F 29.94 in Calm     97% 0.01 in
20:15 41.8 °F 41.0 °F 29.95 in Calm     97% 0.01 in -RA
20:30 41.8 °F 41.0 °F 29.95 in Calm     97% 0.00 in -RA
20:45 41.9 °F 41.1 °F 29.95 in Calm     97% 0.01 in -RA
21:00 42.1 °F 41.3 °F 29.96 in Calm     97% 0.01 in -RA
21:15 42.3 °F 41.5 °F 29.96 in Calm     97% 0.02 in -RA
21:30 42.4 °F 41.6 °F 29.96 in Calm   1.0 mph 97% 0.01 in -RA
21:45 42.6 °F 41.8 °F 29.96 in Calm     97% 0.01 in -RA
22:00 42.7 °F 41.9 °F 29.96 in Calm     97% 0.00 in -RA
22:15 42.6 °F 41.8 °F 29.96 in Calm     97% 0.01 in -RA
22:30 42.6 °F 41.8 °F 29.95 in Calm     97% 0.00 in -RA
22:45 42.6 °F 41.8 °F 29.95 in Calm     97% 0.00 in -RA
23:00 42.5 °F 41.7 °F 29.95 in Calm     97% 0.00 in -RA
23:15 42.6 °F 41.8 °F 29.95 in Calm   1.0 mph 97% 0.01 in RA
23:30 42.4 °F 41.6 °F 29.95 in Calm     97% 0.00 in OVC
23:45 42.3 °F 41.5 °F 29.96 in Calm   1.0 mph 97% 0.00 in OVC
TarryTown NY Weather
Compliments of Weather Underground - 1.5 mb